createdAt,value
2022-10-17T00:01:00.099Z,12.70
2022-10-17T00:03:27.336Z,12.70
2022-10-17T00:05:56.132Z,12.60
2022-10-17T00:08:23.874Z,12.60
2022-10-17T00:11:07.933Z,12.60
2022-10-17T00:13:35.678Z,12.60
2022-10-17T00:16:02.982Z,12.60
2022-10-17T00:18:30.009Z,12.50
2022-10-17T00:20:57.222Z,12.50
2022-10-17T00:23:24.551Z,12.50
2022-10-17T00:26:06.439Z,12.50
2022-10-17T00:28:33.874Z,12.50
2022-10-17T00:31:05.564Z,12.50
2022-10-17T00:33:34.758Z,12.50
2022-10-17T00:36:21.699Z,12.50
2022-10-17T00:38:55.831Z,12.40
2022-10-17T00:41:30.362Z,12.40
2022-10-17T00:44:06.081Z,12.40
2022-10-17T00:46:35.462Z,12.40
2022-10-17T00:49:10.919Z,12.30
2022-10-17T00:54:17.214Z,12.30
2022-10-17T00:56:47.089Z,12.30
2022-10-17T00:59:16.973Z,12.20
2022-10-17T01:02:09.983Z,12.20
2022-10-17T01:04:40.198Z,12.20
2022-10-17T01:07:07.497Z,12.20
2022-10-17T01:09:35.655Z,12.10
2022-10-17T01:12:32.407Z,12.20
2022-10-17T01:15:28.221Z,12.10
2022-10-17T01:18:52.645Z,12.10
2022-10-17T01:21:49.637Z,12.10
2022-10-17T01:24:54.041Z,12.00
2022-10-17T01:27:48.977Z,12.00
2022-10-17T01:30:43.105Z,12.00
2022-10-17T01:33:35.840Z,12.00
2022-10-17T01:36:15.416Z,11.90
2022-10-17T01:39:15.090Z,11.90
2022-10-17T01:42:26.288Z,11.90
2022-10-17T01:45:20.759Z,11.90
2022-10-17T01:47:52.295Z,11.90
2022-10-17T01:50:26.010Z,11.90
2022-10-17T01:53:02.759Z,11.90
2022-10-17T01:55:37.551Z,11.90
2022-10-17T01:58:22.048Z,11.90
2022-10-17T02:00:50.650Z,11.80
2022-10-17T02:03:21.080Z,11.80
2022-10-17T02:05:48.818Z,11.80
2022-10-17T02:08:30.061Z,11.80
2022-10-17T02:11:15.254Z,11.80
2022-10-17T02:14:32.110Z,11.80
2022-10-17T02:17:11.033Z,11.70
2022-10-17T02:20:10.632Z,11.70
2022-10-17T02:23:27.862Z,11.70
2022-10-17T02:26:10.453Z,11.70
2022-10-17T02:28:56.069Z,11.70
2022-10-17T02:31:29.044Z,11.60
2022-10-17T02:34:06.809Z,11.60
2022-10-17T02:36:40.604Z,11.60
2022-10-17T02:39:09.558Z,11.60
2022-10-17T02:41:38.287Z,11.60
2022-10-17T02:44:06.859Z,11.60
2022-10-17T02:46:35.513Z,11.60
2022-10-17T02:49:20.527Z,11.50
2022-10-17T02:52:10.422Z,11.50
2022-10-17T02:54:51.414Z,11.50
2022-10-17T02:57:39.480Z,11.50
2022-10-17T03:00:10.981Z,11.50
2022-10-17T03:02:44.840Z,11.50
2022-10-17T03:05:23.091Z,11.40
2022-10-17T03:07:50.779Z,11.40
2022-10-17T03:10:18.484Z,11.40
2022-10-17T03:12:45.499Z,11.40
2022-10-17T03:15:13.578Z,11.40
2022-10-17T03:17:41.110Z,11.30
2022-10-17T03:20:08.595Z,11.30
2022-10-17T03:22:35.723Z,11.30
2022-10-17T03:25:03.058Z,11.30
2022-10-17T03:27:30.304Z,11.30
2022-10-17T03:29:57.733Z,11.20
2022-10-17T03:32:24.883Z,11.20
2022-10-17T03:34:51.929Z,11.20
2022-10-17T03:37:19.026Z,11.20
2022-10-17T03:39:46.049Z,11.20
2022-10-17T03:42:13.060Z,11.20
2022-10-17T03:44:40.091Z,11.20
2022-10-17T03:47:09.245Z,11.10
2022-10-17T03:49:38.921Z,11.10
2022-10-17T03:52:06.167Z,11.10
2022-10-17T03:54:33.221Z,11.10
2022-10-17T03:57:00.310Z,11.10
2022-10-17T03:59:27.402Z,11.00
2022-10-17T04:01:54.449Z,11.00
2022-10-17T04:04:21.844Z,11.00
2022-10-17T04:06:48.958Z,11.00
2022-10-17T04:09:16.143Z,11.00
2022-10-17T04:11:43.182Z,11.00
2022-10-17T04:14:10.506Z,11.00
2022-10-17T04:16:38.538Z,11.00
2022-10-17T04:19:05.620Z,11.00
2022-10-17T04:21:32.708Z,11.00
2022-10-17T04:24:00.862Z,11.00
2022-10-17T04:26:30.925Z,11.00
2022-10-17T04:28:57.944Z,11.00
2022-10-17T04:31:25.107Z,11.00
2022-10-17T04:33:52.155Z,11.00
2022-10-17T04:36:20.345Z,11.00
2022-10-17T04:38:47.408Z,11.00
2022-10-17T04:41:18.548Z,11.00
2022-10-17T04:43:48.658Z,11.00
2022-10-17T04:46:18.501Z,11.00
2022-10-17T04:48:45.623Z,11.00
2022-10-17T04:51:16.052Z,11.10
2022-10-17T04:53:44.562Z,11.10
2022-10-17T04:56:19.430Z,11.20
2022-10-17T04:58:47.435Z,11.30
2022-10-17T05:01:18.514Z,11.30
2022-10-17T05:03:46.480Z,11.40
2022-10-17T05:06:17.790Z,11.40
2022-10-17T05:08:45.589Z,11.50
2022-10-17T05:11:25.475Z,11.50
2022-10-17T05:13:59.345Z,11.50
2022-10-17T05:16:27.587Z,11.60
2022-10-17T05:18:57.476Z,11.60
2022-10-17T05:21:27.948Z,11.60
2022-10-17T05:23:55.560Z,11.70
2022-10-17T05:26:23.991Z,11.70
2022-10-17T05:28:52.569Z,11.70
2022-10-17T05:31:19.783Z,11.70
2022-10-17T05:33:47.120Z,11.70
2022-10-17T05:36:14.474Z,11.80
2022-10-17T05:38:41.584Z,11.70
2022-10-17T05:41:10.016Z,11.70
2022-10-17T05:43:37.093Z,11.70
2022-10-17T05:46:06.534Z,11.70
2022-10-17T05:48:34.833Z,11.70
2022-10-17T05:51:05.888Z,11.70
2022-10-17T05:53:37.095Z,11.70
2022-10-17T05:56:08.459Z,11.70
2022-10-17T05:58:49.762Z,11.70
2022-10-17T06:01:18.358Z,11.70
2022-10-17T06:03:45.516Z,11.70
2022-10-17T06:06:14.432Z,11.60
2022-10-17T06:08:41.852Z,11.60
2022-10-17T12:39:43.932Z,24.10
2022-10-17T12:42:32.156Z,24.50
2022-10-17T12:44:59.546Z,24.60
2022-10-17T12:47:39.102Z,24.60
2022-10-17T12:51:34.687Z,24.80
2022-10-17T12:54:18.939Z,24.90
2022-10-17T12:56:49.405Z,25.10
2022-10-17T12:59:29.374Z,25.20
2022-10-17T13:02:01.928Z,25.30
2022-10-17T13:04:30.678Z,25.30
2022-10-17T13:07:01.030Z,25.40
2022-10-17T13:09:36.405Z,25.40
2022-10-17T13:12:06.342Z,25.50
2022-10-17T13:14:34.936Z,25.50
2022-10-17T13:17:06.348Z,25.60
2022-10-17T13:19:45.726Z,25.70
2022-10-17T13:22:26.110Z,25.70
2022-10-17T13:25:07.411Z,25.80
2022-10-17T13:27:36.815Z,25.90
2022-10-17T13:30:24.757Z,26.00
2022-10-17T13:32:54.199Z,26.10
2022-10-17T13:38:32.176Z,26.00
2022-10-17T13:41:22.943Z,26.10
2022-10-17T13:43:49.437Z,26.10
2022-10-17T13:46:37.874Z,26.00
2022-10-17T13:49:33.358Z,25.90
2022-10-17T13:52:03.927Z,26.00
2022-10-17T13:54:42.312Z,25.80
2022-10-17T13:57:28.065Z,25.80
2022-10-17T14:00:15.265Z,25.80
2022-10-17T14:02:42.723Z,25.80
2022-10-17T14:05:17.743Z,25.70
2022-10-17T14:08:21.765Z,25.80
2022-10-17T14:10:48.246Z,25.80
2022-10-17T14:13:25.982Z,25.80
2022-10-17T14:15:56.282Z,25.80
2022-10-17T14:18:36.366Z,25.80
2022-10-17T14:24:24.828Z,25.60
2022-10-17T14:27:01.629Z,25.50
2022-10-17T14:29:31.167Z,25.30
2022-10-17T14:32:13.786Z,25.10
2022-10-17T14:34:41.398Z,25.00
2022-10-17T14:37:22.236Z,24.70
2022-10-17T14:39:51.274Z,24.50
2022-10-17T14:42:23.190Z,24.40
2022-10-17T14:44:53.548Z,24.30
2022-10-17T14:47:42.778Z,24.10
2022-10-17T14:50:13.197Z,23.90
2022-10-17T14:52:40.848Z,23.70
2022-10-17T14:55:28.739Z,23.60
2022-10-17T14:57:55.838Z,23.50
2022-10-17T15:00:24.092Z,23.40
2022-10-17T15:02:53.498Z,23.30
2022-10-17T15:05:23.186Z,23.10
2022-10-17T15:07:50.589Z,23.00
2022-10-17T15:10:41.802Z,22.90
2022-10-17T15:13:28.280Z,22.80
2022-10-17T15:15:56.190Z,22.60
2022-10-17T15:18:23.290Z,22.50
2022-10-17T15:20:56.279Z,22.30
2022-10-17T15:23:32.308Z,22.20
2022-10-17T15:25:59.467Z,22.10
2022-10-17T15:28:27.389Z,22.00
2022-10-17T15:30:54.526Z,21.90
2022-10-17T15:33:21.560Z,21.80
2022-10-17T15:35:48.730Z,21.80
2022-10-17T15:38:18.177Z,21.70
2022-10-17T15:40:48.914Z,21.70
2022-10-17T15:43:19.650Z,21.60
2022-10-17T15:45:48.190Z,21.50
2022-10-17T15:48:24.839Z,21.40
2022-10-17T15:50:51.920Z,21.30
2022-10-17T15:53:19.336Z,21.20
2022-10-17T15:55:46.536Z,21.10
2022-10-17T15:58:16.526Z,21.00
2022-10-17T16:00:45.283Z,21.00
2022-10-17T16:03:12.568Z,20.90
2022-10-17T16:05:39.759Z,20.80
2022-10-17T16:08:06.883Z,20.70
2022-10-17T16:10:34.838Z,20.60
2022-10-17T16:13:01.995Z,20.50
2022-10-17T16:15:29.186Z,20.40
2022-10-17T16:18:00.448Z,20.40
2022-10-17T16:20:29.942Z,20.30
2022-10-17T16:23:00.719Z,20.20
2022-10-17T16:25:30.598Z,20.20
2022-10-17T16:28:00.548Z,20.10
2022-10-17T16:30:30.387Z,20.00
2022-10-17T16:32:57.470Z,20.00
2022-10-17T16:35:33.199Z,19.90
2022-10-17T16:38:05.995Z,19.90
2022-10-17T16:40:33.392Z,19.80
2022-10-17T16:43:00.524Z,19.80
2022-10-17T16:45:27.659Z,19.70
2022-10-17T16:47:55.689Z,19.70
2022-10-17T16:50:22.851Z,19.70
2022-10-17T16:52:50.208Z,19.70
2022-10-17T16:55:19.016Z,19.60
2022-10-17T16:57:48.885Z,19.50
2022-10-17T17:00:17.492Z,19.50
2022-10-17T17:02:47.128Z,19.40
2022-10-17T17:05:15.026Z,19.40
2022-10-17T17:07:43.448Z,19.30
2022-10-17T17:10:11.638Z,19.30
2022-10-17T17:12:39.102Z,19.20
2022-10-17T17:15:06.655Z,19.30
2022-10-17T17:17:49.566Z,19.20
2022-10-17T17:20:19.881Z,19.20
2022-10-17T17:22:47.528Z,19.20
2022-10-17T17:27:44.656Z,19.00
2022-10-17T17:30:14.158Z,19.00
2022-10-17T17:32:41.836Z,18.90
2022-10-17T17:35:09.991Z,18.90
2022-10-17T17:37:37.442Z,18.90
2022-10-17T17:40:06.769Z,18.90
2022-10-17T17:42:34.423Z,18.90
2022-10-17T17:45:02.136Z,18.90
2022-10-17T17:47:30.390Z,18.90
2022-10-17T17:49:58.767Z,18.90
2022-10-17T17:52:29.178Z,18.80
2022-10-17T17:54:58.203Z,18.80
2022-10-17T17:57:25.689Z,18.80
2022-10-17T17:59:52.830Z,18.70
2022-10-17T18:02:20.167Z,18.70
2022-10-17T18:04:47.668Z,18.70
2022-10-17T18:07:15.299Z,18.70
2022-10-17T18:09:42.947Z,18.60
2022-10-17T18:12:10.567Z,18.60
2022-10-17T18:14:38.611Z,18.60
2022-10-17T18:17:06.669Z,18.60
2022-10-17T18:19:35.282Z,18.50
2022-10-17T18:22:03.350Z,18.50
2022-10-17T18:24:31.198Z,18.50
2022-10-17T18:27:03.961Z,18.50
2022-10-17T18:29:35.360Z,18.40
2022-10-17T18:32:03.433Z,18.40
2022-10-17T18:34:31.268Z,18.40
2022-10-17T18:37:00.413Z,18.40
2022-10-17T18:39:30.410Z,18.30
2022-10-17T18:41:58.397Z,18.30
2022-10-17T18:44:29.474Z,18.30
2022-10-17T18:47:03.080Z,18.30
2022-10-17T18:49:32.588Z,18.30
2022-10-17T18:52:00.564Z,18.20
2022-10-17T18:54:29.589Z,18.20
2022-10-17T18:56:57.588Z,18.10
2022-10-17T18:59:25.735Z,18.10
2022-10-17T19:01:55.061Z,18.10
2022-10-17T19:04:23.097Z,18.10
2022-10-17T19:06:51.049Z,18.00
2022-10-17T19:09:18.730Z,18.00
2022-10-17T19:11:45.966Z,17.90
2022-10-17T19:14:13.698Z,17.90
2022-10-17T19:16:54.383Z,17.90
2022-10-17T19:19:26.807Z,17.90
2022-10-17T19:21:55.585Z,17.80
2022-10-17T19:24:28.200Z,17.80
2022-10-17T19:26:58.293Z,17.80
2022-10-17T19:29:31.566Z,17.70
2022-10-17T19:31:59.510Z,17.60
2022-10-17T19:34:27.918Z,17.60
2022-10-17T19:36:55.907Z,17.60
2022-10-17T19:39:26.085Z,17.60
2022-10-17T19:41:53.734Z,17.60
2022-10-17T19:44:21.005Z,17.60
2022-10-17T19:46:49.381Z,17.50
2022-10-17T19:49:17.756Z,17.50
2022-10-17T19:51:45.924Z,17.50
2022-10-17T19:54:15.264Z,17.50
2022-10-17T19:56:44.810Z,17.50
2022-10-17T19:59:14.776Z,17.40
2022-10-17T20:01:43.229Z,17.40
2022-10-17T20:04:12.204Z,17.40
2022-10-17T20:06:41.169Z,17.40
2022-10-17T20:09:13.950Z,17.40
2022-10-17T20:11:44.298Z,17.40
2022-10-17T20:14:11.523Z,17.30
2022-10-17T20:16:38.769Z,17.30
2022-10-17T20:19:10.879Z,17.30
2022-10-17T20:21:39.846Z,17.30
2022-10-17T20:24:11.519Z,17.20
2022-10-17T20:26:39.814Z,17.20
2022-10-17T20:29:15.794Z,17.20
2022-10-17T20:31:45.413Z,17.10
2022-10-17T20:34:15.529Z,17.10
2022-10-17T20:36:43.209Z,17.00
2022-10-17T20:39:13.382Z,16.90
2022-10-17T20:41:41.492Z,16.90
2022-10-17T20:44:09.285Z,16.80
2022-10-17T20:46:41.595Z,16.80
2022-10-17T20:49:16.849Z,16.70
2022-10-17T20:51:44.920Z,16.60
2022-10-17T20:54:12.817Z,16.60
2022-10-17T20:56:40.192Z,16.60
2022-10-17T20:59:13.177Z,16.50
2022-10-17T21:01:40.765Z,16.50
2022-10-17T21:04:40.578Z,16.40
2022-10-17T21:06:55.721Z,16.40
2022-10-17T21:09:22.960Z,16.30
2022-10-17T21:11:54.340Z,16.20
2022-10-17T21:14:22.888Z,16.20
2022-10-17T21:16:50.273Z,16.20
2022-10-17T21:19:17.380Z,16.10
2022-10-17T21:21:46.617Z,16.00
2022-10-17T21:24:17.915Z,16.00
2022-10-17T21:26:46.891Z,16.00
2022-10-17T21:29:14.471Z,15.90
2022-10-17T21:31:44.156Z,15.90
2022-10-17T21:34:21.842Z,15.90
2022-10-17T21:36:49.418Z,15.80
2022-10-17T21:39:17.275Z,15.70
2022-10-17T21:41:45.309Z,15.70
2022-10-17T21:44:15.960Z,15.70
2022-10-17T21:46:44.076Z,15.70
2022-10-17T21:49:19.583Z,15.70
2022-10-17T21:51:47.796Z,15.60
2022-10-17T21:54:16.408Z,15.60
2022-10-17T21:56:43.780Z,15.60
2022-10-17T21:59:11.218Z,15.60
2022-10-17T22:01:41.705Z,15.50
2022-10-17T22:04:13.990Z,15.50
2022-10-17T22:06:43.449Z,15.50
2022-10-17T22:09:19.840Z,15.50
2022-10-17T22:11:50.715Z,15.50
2022-10-17T22:14:20.811Z,15.50
2022-10-17T22:16:49.196Z,15.50
2022-10-17T22:19:21.346Z,15.50
2022-10-17T22:21:48.922Z,15.50
2022-10-17T22:26:47.338Z,15.40
2022-10-17T22:29:15.507Z,15.40
2022-10-17T22:31:42.565Z,15.40
2022-10-17T22:34:12.765Z,15.40
2022-10-17T22:36:40.220Z,15.40
2022-10-17T22:39:07.866Z,15.30
2022-10-17T22:41:34.988Z,15.20
2022-10-17T22:44:02.470Z,15.20
2022-10-17T22:46:30.042Z,15.20
2022-10-17T22:48:57.306Z,15.10
2022-10-17T22:53:56.716Z,15.10
2022-10-17T22:56:24.030Z,15.10
2022-10-17T22:58:51.582Z,15.00
2022-10-17T23:01:24.032Z,14.90
2022-10-17T23:03:52.704Z,14.90
2022-10-17T23:06:21.133Z,14.90
2022-10-17T23:08:48.941Z,14.80
2022-10-17T23:11:16.320Z,14.80
2022-10-17T23:13:43.430Z,14.70
2022-10-17T23:16:10.739Z,14.60
2022-10-17T23:18:38.743Z,14.60
2022-10-17T23:21:07.148Z,14.60
2022-10-17T23:23:34.541Z,14.50
2022-10-17T23:26:14.185Z,14.50
2022-10-17T23:28:42.615Z,14.40
2022-10-17T23:31:16.928Z,14.30
2022-10-17T23:33:45.801Z,14.30
2022-10-17T23:36:16.568Z,14.20
2022-10-17T23:38:45.519Z,14.10
2022-10-17T23:41:12.852Z,14.10
2022-10-17T23:43:40.387Z,14.00
2022-10-17T23:46:08.172Z,14.00
2022-10-17T23:48:35.612Z,13.90
2022-10-17T23:51:02.879Z,13.90
2022-10-17T23:53:30.482Z,13.80
2022-10-17T23:55:57.566Z,13.80
2022-10-17T23:58:24.649Z,13.70
